Time;durP1;ratioP1;P1;durP2;ratioP2;P2;SDS_P1;SDS_P2;PMS_P1;PMS_P2;Temp;Humidity;BMP_temperature;BMP_pressure;BME280_temperature;BME280_humidity;BME280_pressure;Samples;Min_cycle;Max_cycle;Signal;HPM_P1;HPM_P2
2021/08/02 00:00:21;;;;;;;2.65;1.45;;;17.40;91.40;;;;;;4993999;28;20038;-73
2021/08/02 00:02:49;;;;;;;3.17;1.30;;;17.40;91.30;;;;;;4999704;28;20553;-72
2021/08/02 00:05:17;;;;;;;1.30;1.13;;;17.40;91.30;;;;;;5013489;28;20375;-72
2021/08/02 00:07:45;;;;;;;2.22;1.10;;;17.40;91.20;;;;;;5013993;28;20026;-72
2021/08/02 00:10:12;;;;;;;1.65;1.08;;;17.40;91.20;;;;;;5013508;28;20466;-72
2021/08/02 00:12:44;;;;;;;1.60;1.17;;;17.40;91.20;;;;;;5013934;28;20550;-72
2021/08/02 00:15:11;;;;;;;2.17;1.08;;;17.40;91.10;;;;;;5013379;28;20026;-72
2021/08/02 00:17:42;;;;;;;4.55;1.52;;;17.50;91.20;;;;;;5013833;28;20510;-73
2021/08/02 00:20:12;;;;;;;1.75;1.05;;;17.50;91.30;;;;;;5013273;28;20125;-73
2021/08/02 00:22:38;;;;;;;1.45;1.17;;;17.50;91.30;;;;;;5015011;28;20026;-73
2021/08/02 00:25:05;;;;;;;4.45;1.30;;;17.50;91.30;;;;;;5013466;28;20586;-72
2021/08/02 00:27:32;;;;;;;1.73;1.10;;;17.60;91.30;;;;;;5013652;28;20124;-72
2021/08/02 00:29:59;;;;;;;1.70;1.23;;;17.50;91.30;;;;;;5014920;28;20026;-72
2021/08/02 00:32:24;;;;;;;1.88;1.33;;;17.60;91.30;;;;;;5013732;28;20101;-72
2021/08/02 00:34:50;;;;;;;1.80;1.08;;;17.50;91.30;;;;;;5014802;28;20104;-72
2021/08/02 00:37:40;;;;;;;1.00;0.90;;;17.50;91.30;;;;;;5014477;28;20076;-73
2021/08/02 00:40:30;;;;;;;1.40;1.05;;;17.50;91.40;;;;;;5014083;28;20502;-74
2021/08/02 00:43:04;;;;;;;2.10;1.17;;;17.50;91.40;;;;;;5013473;28;20379;-72
2021/08/02 00:45:33;;;;;;;2.70;1.00;;;17.40;91.40;;;;;;5013797;28;20030;-72
2021/08/02 00:48:09;;;;;;;3.08;1.10;;;17.40;91.40;;;;;;5014506;28;20112;-72
2021/08/02 00:50:47;;;;;;;3.17;1.05;;;17.40;91.40;;;;;;5013247;28;20030;-72
2021/08/02 00:53:20;;;;;;;3.13;0.82;;;17.40;91.40;;;;;;5012620;28;20037;-72
2021/08/02 00:55:49;;;;;;;1.77;1.40;;;17.30;91.70;;;;;;5014575;28;20052;-72
2021/08/02 00:58:17;;;;;;;5.00;1.13;;;17.30;91.50;;;;;;5012514;28;20468;-71
2021/08/02 01:00:44;;;;;;;1.58;1.08;;;17.30;91.40;;;;;;5014391;28;20087;-72
2021/08/02 01:03:12;;;;;;;3.60;1.25;;;17.30;91.40;;;;;;5013609;28;20054;-72
2021/08/02 01:05:40;;;;;;;2.97;1.17;;;17.20;91.30;;;;;;5013052;28;20026;-72
2021/08/02 01:08:27;;;;;;;13.80;2.25;;;17.20;91.40;;;;;;5012895;28;20434;-72
2021/08/02 01:11:01;;;;;;;1.20;0.82;;;17.20;91.40;;;;;;5013816;28;20480;-72
2021/08/02 01:13:29;;;;;;;1.98;1.10;;;17.10;91.40;;;;;;5013299;28;20624;-72
2021/08/02 01:15:58;;;;;;;2.05;1.20;;;17.10;91.40;;;;;;5013711;28;20030;-72
2021/08/02 01:18:25;;;;;;;2.30;1.08;;;17.00;91.40;;;;;;5013685;28;20064;-71
2021/08/02 01:20:53;;;;;;;1.63;0.98;;;17.00;91.50;;;;;;5012250;28;20030;-72
2021/08/02 01:23:23;;;;;;;1.35;1.13;;;16.90;91.40;;;;;;5012016;28;20064;-72
2021/08/02 01:25:48;;;;;;;1.40;1.02;;;16.90;91.40;;;;;;5012555;28;20052;-72
2021/08/02 01:28:14;;;;;;;3.47;1.23;;;16.80;91.40;;;;;;5011907;28;20080;-72
2021/08/02 01:30:48;;;;;;;3.13;1.00;;;16.80;91.40;;;;;;5013614;28;20026;-72
2021/08/02 01:33:15;;;;;;;1.63;1.08;;;16.80;91.30;;;;;;5011983;28;20118;-72
2021/08/02 01:35:42;;;;;;;1.27;1.05;;;16.80;91.20;;;;;;5013688;28;20109;-72
2021/08/02 01:38:09;;;;;;;4.50;1.00;;;16.80;91.10;;;;;;5012331;28;20498;-72
2021/08/02 01:40:34;;;;;;;2.90;0.98;;;16.80;91.10;;;;;;5013179;28;20037;-72
2021/08/02 01:43:05;;;;;;;1.70;0.80;;;16.80;91.00;;;;;;5012896;28;20018;-72
2021/08/02 01:45:45;;;;;;;1.38;1.00;;;16.80;90.80;;;;;;5011661;28;20352;-73
2021/08/02 01:48:19;;;;;;;3.20;0.80;;;16.80;90.70;;;;;;5013303;28;20022;-73
2021/08/02 01:50:47;;;;;;;3.60;0.90;;;16.80;90.50;;;;;;5013625;28;20034;-71
2021/08/02 01:53:33;;;;;;;1.55;1.00;;;16.80;90.40;;;;;;5011673;28;20026;-72
2021/08/02 01:56:15;;;;;;;1.60;0.90;;;16.90;90.40;;;;;;5011724;28;20029;-72
2021/08/02 01:59:02;;;;;;;2.47;1.00;;;16.90;90.40;;;;;;5012349;28;20387;-72
2021/08/02 02:01:28;;;;;;;1.98;0.90;;;16.90;90.50;;;;;;5011113;28;20042;-72
2021/08/02 02:03:57;;;;;;;3.58;1.10;;;16.80;90.40;;;;;;5011798;28;20046;-71
2021/08/02 02:06:29;;;;;;;1.85;0.98;;;16.90;90.40;;;;;;5011387;28;20022;-72
2021/08/02 02:09:00;;;;;;;1.65;0.80;;;16.90;90.40;;;;;;5012975;28;20021;-72
2021/08/02 02:11:27;;;;;;;1.10;0.90;;;16.90;90.50;;;;;;5011416;28;20387;-72
2021/08/02 02:13:58;;;;;;;1.70;1.10;;;16.90;90.50;;;;;;5011802;28;20124;-72
2021/08/02 02:16:26;;;;;;;3.15;0.98;;;16.90;90.50;;;;;;5011316;28;20055;-72
2021/08/02 02:18:56;;;;;;;2.38;0.90;;;16.90;90.50;;;;;;5011744;28;20033;-72
2021/08/02 02:21:27;;;;;;;0.82;0.80;;;16.90;90.60;;;;;;5010974;28;20037;-73
2021/08/02 02:23:54;;;;;;;2.13;1.00;;;16.90;90.60;;;;;;5011787;28;20097;-73
2021/08/02 02:26:22;;;;;;;3.47;0.98;;;16.90;90.60;;;;;;5011079;28;20044;-72
2021/08/02 02:28:48;;;;;;;1.98;1.10;;;16.90;90.60;;;;;;5012600;28;20018;-72
2021/08/02 02:31:15;;;;;;;2.58;1.42;;;16.90;90.60;;;;;;5010996;28;20116;-72
2021/08/02 02:33:41;;;;;;;2.45;1.00;;;16.90;90.70;;;;;;5011823;28;20022;-72
2021/08/02 02:36:08;;;;;;;3.08;1.20;;;16.90;90.70;;;;;;5011640;28;20088;-72
2021/08/02 02:38:35;;;;;;;2.80;1.02;;;16.90;90.70;;;;;;5012480;28;20057;-72
2021/08/02 02:41:02;;;;;;;2.33;1.00;;;16.90;90.90;;;;;;5011437;28;20069;-72
2021/08/02 02:43:28;;;;;;;2.30;1.10;;;16.90;90.90;;;;;;5010931;28;20383;-72
2021/08/02 02:45:54;;;;;;;2.10;1.17;;;16.90;90.90;;;;;;5012458;28;20048;-71
2021/08/02 02:48:20;;;;;;;2.95;1.13;;;16.90;91.00;;;;;;5012140;28;20100;-72
2021/08/02 02:50:49;;;;;;;2.05;1.10;;;16.90;91.10;;;;;;5012705;28;20033;-73
2021/08/02 02:53:16;;;;;;;3.53;1.45;;;17.00;91.10;;;;;;5010947;28;20022;-74
2021/08/02 02:55:44;;;;;;;2.88;1.20;;;17.00;91.20;;;;;;5014378;28;20038;-73
2021/08/02 02:58:09;;;;;;;2.20;1.10;;;16.90;91.30;;;;;;5016643;28;20037;-74
2021/08/02 03:00:36;;;;;;;1.67;1.25;;;16.90;91.30;;;;;;5015805;28;20034;-71
2021/08/02 03:03:03;;;;;;;1.98;1.05;;;16.90;91.40;;;;;;5014876;28;20050;-71
2021/08/02 03:05:31;;;;;;;1.65;1.25;;;16.90;91.60;;;;;;5014665;28;20029;-71
2021/08/02 03:07:59;;;;;;;1.92;1.00;;;16.90;91.60;;;;;;5015366;28;20051;-71
2021/08/02 03:10:26;;;;;;;1.58;1.23;;;16.90;91.60;;;;;;5014283;28;20025;-71
2021/08/02 03:12:52;;;;;;;1.67;1.20;;;16.90;91.70;;;;;;5015070;28;20471;-71
2021/08/02 03:15:19;;;;;;;2.40;1.20;;;16.90;91.70;;;;;;5014511;28;20026;-71
2021/08/02 03:17:46;;;;;;;1.92;1.23;;;17.00;91.70;;;;;;5015026;28;20030;-71
2021/08/02 03:20:13;;;;;;;1.30;1.10;;;17.00;91.70;;;;;;5014869;28;20030;-71
2021/08/02 03:22:57;;;;;;;2.03;1.00;;;17.00;91.70;;;;;;5014331;28;20030;-74
2021/08/02 03:25:38;;;;;;;1.40;1.17;;;17.00;91.70;;;;;;5014463;28;20033;-71
2021/08/02 03:28:14;;;;;;;5.65;1.20;;;17.00;91.80;;;;;;5015900;28;20471;-71
2021/08/02 03:30:43;;;;;;;2.85;1.08;;;17.00;91.70;;;;;;5014355;28;20525;-71
2021/08/02 03:33:26;;;;;;;1.60;1.10;;;17.00;91.70;;;;;;5014945;28;20026;-71
2021/08/02 03:35:56;;;;;;;1.65;1.13;;;17.00;91.80;;;;;;5015090;28;20026;-71
2021/08/02 03:38:23;;;;;;;1.55;1.30;;;17.00;91.70;;;;;;5014148;28;20084;-71
2021/08/02 03:40:49;;;;;;;1.65;1.08;;;17.10;91.70;;;;;;5014536;28;20034;-71
2021/08/02 03:43:16;;;;;;;2.72;1.40;;;17.10;91.70;;;;;;5014488;28;20030;-71
2021/08/02 03:45:42;;;;;;;3.10;1.60;;;17.10;91.70;;;;;;5014568;28;20026;-71
2021/08/02 03:48:09;;;;;;;1.90;1.10;;;17.10;91.80;;;;;;5015784;28;20094;-71
2021/08/02 03:50:36;;;;;;;2.60;1.30;;;17.10;91.70;;;;;;5015132;28;20021;-74
2021/08/02 03:53:02;;;;;;;2.65;1.17;;;17.10;91.80;;;;;;5014443;28;20029;-74
2021/08/02 03:55:30;;;;;;;1.23;1.08;;;17.10;91.80;;;;;;5013775;28;20537;-71
2021/08/02 03:57:56;;;;;;;2.25;1.05;;;17.10;91.80;;;;;;5014299;28;20041;-71
2021/08/02 04:00:23;;;;;;;2.97;1.42;;;17.00;92.00;;;;;;5013654;28;20030;-71
2021/08/02 04:02:50;;;;;;;2.85;1.30;;;16.90;92.20;;;;;;5015464;28;20100;-71
2021/08/02 04:05:19;;;;;;;3.17;1.50;;;17.00;92.10;;;;;;5013767;28;20490;-71
2021/08/02 04:07:45;;;;;;;3.38;1.00;;;17.00;92.00;;;;;;5014691;28;20018;-71
2021/08/02 04:10:11;;;;;;;1.95;1.20;;;17.00;92.10;;;;;;5015317;28;20030;-71
2021/08/02 04:12:38;;;;;;;5.68;1.60;;;17.00;92.10;;;;;;5013441;28;20029;-71
2021/08/02 04:15:06;;;;;;;2.60;1.40;;;17.00;92.10;;;;;;5015248;28;20026;-71
2021/08/02 04:17:32;;;;;;;2.90;1.75;;;16.90;92.30;;;;;;5014584;28;20057;-71
2021/08/02 04:19:57;;;;;;;1.95;1.45;;;17.00;92.20;;;;;;5014867;28;20111;-71
2021/08/02 04:22:23;;;;;;;2.35;1.58;;;16.90;92.20;;;;;;5014544;28;20026;-71
2021/08/02 04:24:49;;;;;;;2.63;1.63;;;16.90;92.30;;;;;;5014781;28;20406;-71
2021/08/02 04:27:14;;;;;;;4.07;1.38;;;16.90;92.50;;;;;;5014994;28;20428;-71
2021/08/02 04:29:40;;;;;;;2.58;1.20;;;16.90;92.40;;;;;;5014412;28;20037;-71
2021/08/02 04:32:06;;;;;;;2.10;1.70;;;16.80;92.50;;;;;;5013572;28;20028;-71
2021/08/02 04:34:31;;;;;;;2.83;1.40;;;16.90;92.50;;;;;;5013076;28;20357;-74
2021/08/02 04:36:57;;;;;;;2.15;1.35;;;16.90;92.40;;;;;;5013586;28;20056;-73
2021/08/02 04:39:23;;;;;;;2.47;1.70;;;17.00;92.40;;;;;;5012961;28;20032;-71
2021/08/02 04:41:48;;;;;;;4.18;1.55;;;16.90;92.40;;;;;;5013654;28;20084;-71
2021/08/02 04:44:14;;;;;;;2.55;1.65;;;17.00;92.40;;;;;;5014440;28;20034;-71
2021/08/02 04:46:39;;;;;;;2.30;1.40;;;17.00;92.40;;;;;;5012821;28;20460;-72
2021/08/02 04:49:05;;;;;;;1.88;1.42;;;17.00;92.20;;;;;;5013255;28;20037;-71
2021/08/02 04:51:31;;;;;;;1.60;1.20;;;17.10;92.10;;;;;;5012725;28;20034;-70
2021/08/02 04:53:56;;;;;;;3.92;1.52;;;17.10;92.00;;;;;;5013015;28;20079;-70
2021/08/02 04:56:22;;;;;;;4.00;1.48;;;17.10;92.00;;;;;;5012651;28;20056;-72
2021/08/02 04:58:48;;;;;;;1.73;1.23;;;17.10;92.00;;;;;;5012832;28;20030;-71
2021/08/02 05:01:13;;;;;;;2.75;1.48;;;17.10;92.10;;;;;;5012997;28;20073;-71
2021/08/02 05:03:39;;;;;;;4.78;1.73;;;17.10;92.10;;;;;;5012340;28;20050;-70
2021/08/02 05:06:05;;;;;;;5.30;1.88;;;17.10;92.00;;;;;;5013148;28;20069;-71
2021/08/02 05:08:31;;;;;;;4.18;1.60;;;17.10;92.00;;;;;;5013637;28;20030;-70
2021/08/02 05:10:56;;;;;;;2.17;1.60;;;17.10;92.00;;;;;;5013047;28;20040;-71
2021/08/02 05:13:22;;;;;;;3.25;1.63;;;17.10;92.00;;;;;;5013807;28;20038;-72
2021/08/02 05:15:48;;;;;;;2.83;1.60;;;17.20;92.00;;;;;;5012952;28;20464;-71
2021/08/02 05:18:16;;;;;;;3.92;1.40;;;17.20;92.00;;;;;;5012580;28;20062;-71
2021/08/02 05:20:42;;;;;;;2.17;1.42;;;17.20;92.00;;;;;;5012051;28;20276;-71
2021/08/02 05:23:08;;;;;;;1.80;1.30;;;17.20;91.90;;;;;;5012667;28;20036;-70
2021/08/02 05:25:35;;;;;;;2.55;1.45;;;17.10;92.10;;;;;;5012159;28;20100;-71
2021/08/02 05:28:00;;;;;;;2.47;1.30;;;17.20;92.00;;;;;;5012660;28;20026;-71
2021/08/02 05:30:27;;;;;;;4.78;2.00;;;17.20;91.90;;;;;;5011993;28;20026;-71
2021/08/02 05:32:53;;;;;;;4.53;1.80;;;17.20;92.00;;;;;;5012566;28;20026;-71
2021/08/02 05:35:18;;;;;;;1.98;1.50;;;17.20;91.90;;;;;;5012574;28;20022;-71
2021/08/02 05:37:44;;;;;;;1.85;1.60;;;17.20;91.80;;;;;;5011900;28;20033;-71
2021/08/02 05:40:11;;;;;;;2.83;1.35;;;17.20;91.70;;;;;;5012237;28;20034;-72
2021/08/02 05:42:37;;;;;;;6.45;3.25;;;17.20;91.70;;;;;;5011956;28;20026;-72
2021/08/02 05:45:04;;;;;;;3.78;1.88;;;17.20;91.70;;;;;;5012553;28;20136;-72
2021/08/02 05:47:29;;;;;;;4.30;1.65;;;17.20;91.80;;;;;;5011834;28;20029;-73
2021/08/02 05:49:55;;;;;;;2.92;1.70;;;17.30;91.60;;;;;;5012339;28;20022;-72
2021/08/02 05:52:21;;;;;;;3.22;1.70;;;17.30;91.20;;;;;;5012017;28;20544;-72
2021/08/02 05:54:47;;;;;;;1.85;1.50;;;17.30;91.10;;;;;;5011192;28;20033;-72
2021/08/02 05:57:12;;;;;;;3.30;1.30;;;17.30;91.10;;;;;;5013289;28;20108;-71
2021/08/02 05:59:38;;;;;;;3.40;1.98;;;17.40;90.90;;;;;;5012716;28;20368;-70
2021/08/02 06:02:03;;;;;;;4.45;1.55;;;17.40;90.80;;;;;;5012639;28;20033;-72
2021/08/02 06:04:29;;;;;;;5.32;1.40;;;17.40;90.70;;;;;;5011531;28;20037;-72
2021/08/02 06:06:55;;;;;;;1.38;1.20;;;17.40;90.50;;;;;;5012215;28;20030;-72
2021/08/02 06:09:23;;;;;;;7.35;1.63;;;17.40;90.60;;;;;;5012020;28;20034;-71
2021/08/02 06:11:50;;;;;;;4.03;1.67;;;17.40;90.40;;;;;;5010999;28;20026;-72
2021/08/02 06:14:15;;;;;;;3.38;1.30;;;17.40;90.50;;;;;;5012416;28;20033;-72
2021/08/02 06:16:41;;;;;;;6.22;1.50;;;17.50;90.50;;;;;;5011153;28;20026;-72
2021/08/02 06:19:07;;;;;;;5.50;1.90;;;17.50;90.50;;;;;;5011779;28;20113;-72
2021/08/02 06:21:33;;;;;;;2.30;1.50;;;17.60;90.00;;;;;;5011042;28;20026;-72
2021/08/02 06:23:59;;;;;;;3.97;1.50;;;17.60;89.70;;;;;;5012601;28;20030;-72
2021/08/02 06:26:24;;;;;;;6.90;1.70;;;17.70;89.80;;;;;;5011287;28;20383;-72
2021/08/02 06:28:50;;;;;;;2.45;1.48;;;17.70;89.90;;;;;;5010333;28;20018;-72
2021/08/02 06:31:17;;;;;;;3.40;1.65;;;17.80;89.70;;;;;;5011264;28;20061;-72
2021/08/02 06:33:43;;;;;;;3.22;1.48;;;17.80;89.10;;;;;;5011538;28;20548;-76
2021/08/02 06:36:09;;;;;;;4.95;1.60;;;17.80;88.80;;;;;;5010025;28;20022;-76
2021/08/02 06:38:34;;;;;;;4.05;1.50;;;17.90;88.60;;;;;;5011290;28;20095;-75
2021/08/02 06:41:03;;;;;;;5.38;1.60;;;17.90;87.90;;;;;;5010947;28;20022;-75
2021/08/02 06:43:30;;;;;;;3.63;1.40;;;17.90;87.90;;;;;;5009356;28;20022;-75
2021/08/02 06:45:55;;;;;;;2.85;1.42;;;18.00;88.60;;;;;;5010182;28;20041;-74
2021/08/02 06:48:21;;;;;;;4.03;1.58;;;18.00;87.70;;;;;;5009161;28;20030;-76
2021/08/02 06:50:48;;;;;;;3.83;1.83;;;17.90;87.90;;;;;;5011644;28;20290;-72
2021/08/02 06:53:13;;;;;;;2.58;1.65;;;17.90;88.10;;;;;;5008691;28;20379;-76
2021/08/02 06:55:39;;;;;;;3.45;1.60;;;18.00;88.30;;;;;;5008676;28;20038;-74
2021/08/02 06:58:04;;;;;;;3.78;1.70;;;18.00;88.30;;;;;;4994746;28;20030;-74
2021/08/02 07:00:30;;;;;;;8.77;1.83;;;18.00;88.00;;;;;;5009781;28;20105;-74
2021/08/02 07:02:58;;;;;;;3.75;1.70;;;18.00;88.10;;;;;;5009906;28;20053;-75
2021/08/02 07:05:24;;;;;;;7.53;1.92;;;18.00;88.20;;;;;;5010126;28;20387;-75
2021/08/02 07:07:50;;;;;;;6.53;1.73;;;18.10;87.90;;;;;;5010190;28;20022;-75
2021/08/02 07:10:16;;;;;;;2.17;1.50;;;18.00;87.40;;;;;;5009974;28;20033;-74
2021/08/02 07:12:42;;;;;;;4.03;1.50;;;18.00;87.30;;;;;;5008116;28;20018;-75
2021/08/02 07:15:08;;;;;;;3.53;1.85;;;18.00;87.10;;;;;;5010185;28;20038;-75
2021/08/02 07:17:33;;;;;;;3.35;1.42;;;18.00;86.70;;;;;;5009806;28;20113;-75
2021/08/02 07:19:59;;;;;;;3.78;1.30;;;18.00;86.90;;;;;;5010577;28;20116;-76
2021/08/02 07:22:24;;;;;;;2.67;1.40;;;18.00;86.70;;;;;;5010994;28;20524;-75
2021/08/02 07:24:50;;;;;;;1.90;1.42;;;18.10;86.70;;;;;;5011184;28;20034;-75
2021/08/02 07:27:16;;;;;;;3.15;1.48;;;18.10;86.40;;;;;;5012081;28;20026;-75
2021/08/02 07:29:41;;;;;;;3.30;1.65;;;18.10;86.70;;;;;;5009914;28;20026;-74
2021/08/02 07:32:07;;;;;;;4.80;1.75;;;18.10;86.70;;;;;;5010026;28;20499;-73
2021/08/02 07:34:33;;;;;;;2.05;1.23;;;18.20;86.30;;;;;;5009504;28;20018;-74
2021/08/02 07:36:59;;;;;;;5.65;1.50;;;18.20;86.40;;;;;;5009904;28;20029;-75
2021/08/02 07:39:24;;;;;;;1.98;1.27;;;18.20;86.10;;;;;;4998947;28;20026;-75
2021/08/02 07:41:50;;;;;;;5.35;1.38;;;18.30;86.00;;;;;;5009109;28;20450;-75
2021/08/02 07:44:15;;;;;;;5.57;1.77;;;18.40;86.30;;;;;;5015378;28;20426;-75
2021/08/02 07:46:41;;;;;;;3.88;1.60;;;18.40;85.40;;;;;;5013519;28;20025;-74
2021/08/02 07:49:07;;;;;;;5.30;1.20;;;18.50;85.50;;;;;;5014033;28;20049;-78
2021/08/02 07:51:34;;;;;;;4.88;1.40;;;18.50;85.10;;;;;;5014305;28;20034;-75
2021/08/02 07:54:01;;;;;;;4.20;1.40;;;18.50;85.40;;;;;;5006036;28;20049;-74
2021/08/02 07:56:29;;;;;;;3.25;1.40;;;18.40;85.60;;;;;;5010696;28;20033;-73
2021/08/02 07:58:56;;;;;;;2.25;1.13;;;18.40;86.30;;;;;;5001714;28;20045;-76
2021/08/02 08:01:22;;;;;;;1.85;1.38;;;18.40;86.70;;;;;;5013712;28;20095;-76
2021/08/02 08:03:47;;;;;;;1.38;1.20;;;18.30;86.20;;;;;;5013044;28;20046;-75
2021/08/02 08:06:13;;;;;;;2.20;1.63;;;18.30;86.60;;;;;;5013409;28;20029;-76
2021/08/02 08:08:39;;;;;;;2.40;1.35;;;18.30;86.80;;;;;;5014459;28;20517;-76
2021/08/02 08:11:04;;;;;;;3.15;1.48;;;18.40;86.70;;;;;;5013718;28;20594;-74
2021/08/02 08:13:30;;;;;;;3.40;1.35;;;18.40;86.50;;;;;;5012734;28;20030;-76
2021/08/02 08:15:56;;;;;;;2.30;1.42;;;18.40;86.40;;;;;;5010509;28;20459;-75
2021/08/02 08:18:21;;;;;;;3.17;1.55;;;18.40;86.00;;;;;;5014203;28;20101;-75
2021/08/02 08:20:47;;;;;;;3.15;1.38;;;18.40;86.20;;;;;;5013394;28;20410;-75
2021/08/02 08:23:13;;;;;;;4.35;1.50;;;18.50;86.60;;;;;;5012901;28;20026;-75
2021/08/02 08:25:39;;;;;;;3.50;1.48;;;18.60;86.20;;;;;;5011937;28;20049;-75
2021/08/02 08:28:04;;;;;;;4.88;1.55;;;18.80;84.70;;;;;;5012213;28;20036;-73
2021/08/02 08:30:30;;;;;;;3.22;1.52;;;18.90;84.50;;;;;;5013561;28;20030;-77
2021/08/02 08:32:56;;;;;;;3.67;1.55;;;19.00;84.60;;;;;;5010725;28;20053;-74
2021/08/02 08:35:22;;;;;;;2.28;1.42;;;19.00;83.80;;;;;;5012535;28;20029;-75
2021/08/02 08:37:48;;;;;;;2.78;1.50;;;19.20;83.40;;;;;;5013486;28;20022;-74
2021/08/02 08:40:14;;;;;;;2.35;1.45;;;19.30;83.00;;;;;;5012546;28;20034;-75
2021/08/02 08:42:41;;;;;;;1.40;1.10;;;19.40;82.10;;;;;;5011945;28;20018;-75
2021/08/02 08:45:09;;;;;;;4.20;1.55;;;19.50;82.00;;;;;;5011983;28;20034;-74
2021/08/02 08:47:36;;;;;;;2.53;1.27;;;19.60;82.30;;;;;;5011316;28;20033;-75
2021/08/02 08:50:05;;;;;;;3.10;1.38;;;19.60;82.60;;;;;;5011861;28;20026;-75
2021/08/02 08:52:34;;;;;;;1.60;1.30;;;19.80;82.10;;;;;;5007110;28;20502;-77
2021/08/02 08:55:00;;;;;;;2.50;1.20;;;19.80;79.70;;;;;;5011994;28;20076;-74
2021/08/02 08:57:26;;;;;;;1.55;1.15;;;19.90;79.70;;;;;;5011768;28;20029;-73
2021/08/02 08:59:53;;;;;;;2.15;1.30;;;20.00;79.60;;;;;;5008208;28;20176;-71
2021/08/02 09:02:26;;;;;;;1.40;1.30;;;20.00;79.00;;;;;;5007561;28;20438;-72
2021/08/02 09:04:58;;;;;;;1.60;1.20;;;20.00;79.10;;;;;;5009548;28;20149;-72
2021/08/02 09:07:33;;;;;;;3.83;1.40;;;20.00;79.30;;;;;;5012983;28;20032;-72
2021/08/02 09:10:00;;;;;;;3.33;1.27;;;20.10;78.80;;;;;;5011207;28;20437;-73
2021/08/02 09:12:25;;;;;;;3.30;1.33;;;20.10;79.00;;;;;;5009293;28;20026;-72
2021/08/02 09:14:56;;;;;;;1.58;1.40;;;20.10;78.90;;;;;;5004783;28;20813;-72
2021/08/02 09:17:38;;;;;;;3.88;1.13;;;20.10;78.60;;;;;;5003914;28;20087;-76
2021/08/02 09:20:16;;;;;;;3.25;1.23;;;20.20;78.90;;;;;;4997034;28;20490;-74
2021/08/02 09:22:42;;;;;;;3.10;1.17;;;20.30;79.10;;;;;;4992581;28;20058;-75
2021/08/02 09:25:13;;;;;;;2.17;1.40;;;20.30;78.90;;;;;;5001698;28;20081;-77
2021/08/02 09:27:41;;;;;;;4.88;1.63;;;20.30;79.10;;;;;;5012699;28;20133;-76
2021/08/02 09:30:23;;;;;;;3.25;1.50;;;20.30;79.40;;;;;;5012734;28;20064;-76
2021/08/02 09:32:53;;;;;;;3.75;1.55;;;20.30;79.20;;;;;;5011910;28;20031;-76
2021/08/02 09:35:49;;;;;;;4.38;1.60;;;20.30;79.00;;;;;;5012067;28;20131;-76
2021/08/02 09:38:16;;;;;;;1.65;1.10;;;20.40;79.00;;;;;;5010941;28;20133;-75
2021/08/02 09:40:54;;;;;;;2.38;1.40;;;20.40;78.90;;;;;;5011848;28;20045;-76
2021/08/02 09:43:22;;;;;;;3.10;1.50;;;20.50;79.10;;;;;;5013345;28;20771;-76
2021/08/02 09:45:47;;;;;;;1.92;1.50;;;20.50;79.20;;;;;;5011104;28;20030;-77
2021/08/02 09:48:14;;;;;;;3.58;1.70;;;20.40;78.90;;;;;;5011840;28;20076;-76
2021/08/02 09:50:43;;;;;;;3.95;1.80;;;20.50;79.10;;;;;;5011363;28;20029;-77
2021/08/02 09:53:11;;;;;;;1.98;1.63;;;20.50;78.90;;;;;;5012880;28;20026;-76
2021/08/02 09:55:39;;;;;;;2.60;1.70;;;20.50;78.20;;;;;;5011134;28;20042;-76
2021/08/02 09:58:05;;;;;;;3.35;1.60;;;20.50;78.60;;;;;;5012823;28;20535;-76
2021/08/02 10:00:32;;;;;;;1.90;1.30;;;20.60;78.10;;;;;;5011203;28;20136;-75
2021/08/02 10:03:02;;;;;;;3.65;1.38;;;20.60;78.30;;;;;;5011528;28;20045;-74
2021/08/02 10:05:28;;;;;;;2.05;1.45;;;20.80;78.40;;;;;;5010531;28;20534;-75
2021/08/02 10:07:55;;;;;;;2.38;1.70;;;20.80;78.00;;;;;;5010566;28;20121;-76
2021/08/02 10:10:20;;;;;;;2.20;1.40;;;20.90;77.70;;;;;;5013748;28;20478;-75
2021/08/02 10:12:48;;;;;;;5.47;1.63;;;20.80;77.30;;;;;;5022963;28;20028;-75
2021/08/02 10:15:17;;;;;;;4.40;2.47;;;20.80;77.80;;;;;;5010798;28;20391;-75
2021/08/02 10:17:51;;;;;;;2.00;1.48;;;20.80;76.50;;;;;;5011535;28;20029;-75
2021/08/02 10:20:31;;;;;;;1.55;1.30;;;20.80;76.70;;;;;;5011868;28;20034;-75
2021/08/02 10:22:58;;;;;;;2.95;1.30;;;20.80;75.40;;;;;;5010096;28;20052;-72
2021/08/02 10:25:36;;;;;;;2.53;1.17;;;20.80;76.70;;;;;;5011909;28;20038;-72
2021/08/02 10:28:10;;;;;;;4.45;1.30;;;20.80;75.80;;;;;;5010502;28;20054;-73
2021/08/02 10:30:37;;;;;;;1.92;1.63;;;20.80;75.70;;;;;;5010749;28;20026;-76
2021/08/02 10:33:03;;;;;;;3.92;1.23;;;20.90;75.30;;;;;;5010479;28;20017;-76
2021/08/02 10:35:47;;;;;;;2.17;1.08;;;21.00;73.70;;;;;;5010698;28;20033;-75
2021/08/02 10:38:18;;;;;;;3.28;1.30;;;21.00;73.20;;;;;;5011176;28;20168;-76
2021/08/02 10:40:57;;;;;;;3.30;1.33;;;21.10;73.00;;;;;;5010640;28;20029;-75
2021/08/02 10:43:32;;;;;;;3.42;1.30;;;21.10;72.80;;;;;;5010805;28;20040;-75
2021/08/02 10:46:00;;;;;;;2.70;1.35;;;21.20;73.50;;;;;;5009719;28;20026;-76
2021/08/02 10:48:30;;;;;;;2.45;1.40;;;21.20;73.30;;;;;;5010060;28;20030;-75
2021/08/02 10:51:08;;;;;;;2.07;1.20;;;21.20;72.90;;;;;;5009518;28;20038;-75
2021/08/02 10:53:33;;;;;;;2.58;1.50;;;21.30;72.60;;;;;;5008170;28;20022;-75
2021/08/02 10:55:59;;;;;;;4.15;2.08;;;21.30;72.40;;;;;;5008418;28;20057;-73
2021/08/02 10:58:27;;;;;;;3.80;1.60;;;21.40;72.20;;;;;;5010109;28;20463;-73
2021/08/02 11:01:01;;;;;;;3.30;1.70;;;21.30;72.30;;;;;;5008147;28;20033;-73
2021/08/02 11:03:30;;;;;;;1.83;1.30;;;21.40;72.30;;;;;;5010966;28;20049;-73
2021/08/02 11:05:57;;;;;;;2.22;1.30;;;21.40;72.20;;;;;;5006003;28;20211;-74
2021/08/02 11:08:23;;;;;;;2.25;1.25;;;21.50;72.00;;;;;;5007440;28;20072;-73
2021/08/02 11:10:50;;;;;;;1.20;0.90;;;21.50;71.10;;;;;;5009901;28;20025;-73
2021/08/02 11:13:26;;;;;;;2.80;1.00;;;21.40;69.30;;;;;;5010783;28;20030;-73
2021/08/02 11:15:52;;;;;;;2.17;1.10;;;21.50;69.20;;;;;;4995296;28;20040;-73
2021/08/02 11:18:26;;;;;;;1.50;0.88;;;21.50;70.50;;;;;;5014917;28;20053;-73
2021/08/02 11:20:53;;;;;;;3.38;0.80;;;21.60;68.50;;;;;;5014567;28;20048;-73
2021/08/02 11:23:38;;;;;;;2.03;0.75;;;21.60;68.30;;;;;;5008588;28;20021;-73
2021/08/02 11:26:12;;;;;;;2.72;0.90;;;21.50;69.10;;;;;;5014232;28;20486;-73
2021/08/02 11:28:40;;;;;;;1.35;0.90;;;21.50;70.00;;;;;;5013789;28;20030;-75
2021/08/02 11:31:08;;;;;;;1.95;0.90;;;21.40;71.20;;;;;;5013862;28;20463;-74
2021/08/02 11:33:35;;;;;;;2.47;1.00;;;21.50;69.80;;;;;;5014161;28;20470;-74
2021/08/02 11:36:05;;;;;;;3.22;1.13;;;21.60;70.10;;;;;;5014384;28;20060;-74
2021/08/02 11:38:39;;;;;;;1.38;0.80;;;21.70;71.40;;;;;;5014093;28;20463;-74
2021/08/02 11:41:05;;;;;;;2.28;1.10;;;21.60;72.10;;;;;;5015027;28;20069;-74
2021/08/02 11:43:44;;;;;;;1.88;1.10;;;21.50;73.30;;;;;;5013951;28;20021;-74
2021/08/02 11:46:13;;;;;;;1.35;0.90;;;21.40;73.50;;;;;;5013536;28;20113;-74
2021/08/02 11:48:45;;;;;;;2.38;0.90;;;21.40;72.00;;;;;;5014772;28;20022;-75
2021/08/02 11:51:16;;;;;;;2.75;0.98;;;21.50;74.30;;;;;;5014734;28;20467;-75
2021/08/02 11:53:42;;;;;;;1.80;0.60;;;21.50;71.20;;;;;;5013150;28;20121;-74
2021/08/02 11:56:08;;;;;;;1.13;0.47;;;21.50;67.50;;;;;;5012664;28;20128;-75
2021/08/02 11:58:47;;;;;;;0.52;0.40;;;21.60;65.70;;;;;;5008353;28;20053;-74
2021/08/02 12:01:14;;;;;;;0.45;0.38;;;21.70;64.80;;;;;;5005541;28;20498;-74
2021/08/02 12:03:47;;;;;;;1.02;0.50;;;21.80;63.70;;;;;;5014240;28;20052;-75
2021/08/02 12:06:12;;;;;;;0.82;0.47;;;21.80;64.10;;;;;;5014606;28;20418;-75
2021/08/02 12:08:49;;;;;;;0.82;0.60;;;22.00;64.70;;;;;;5013451;28;20117;-74
2021/08/02 12:11:14;;;;;;;1.30;0.70;;;21.90;63.90;;;;;;5013553;28;20120;-74
2021/08/02 12:13:46;;;;;;;2.25;0.80;;;21.80;65.70;;;;;;5014565;28;20441;-75
2021/08/02 12:16:24;;;;;;;2.25;0.80;;;21.80;65.80;;;;;;5014479;28;20022;-75
2021/08/02 12:18:50;;;;;;;0.77;0.50;;;21.80;63.20;;;;;;5012666;28;20382;-75
2021/08/02 12:21:22;;;;;;;1.95;0.68;;;21.80;64.60;;;;;;5020569;28;20084;-74
2021/08/02 12:23:48;;;;;;;0.80;0.65;;;21.70;65.40;;;;;;5010175;28;20391;-75
2021/08/02 12:26:19;;;;;;;1.27;0.90;;;21.70;67.10;;;;;;5012745;28;20025;-75
2021/08/02 12:28:45;;;;;;;0.98;0.70;;;21.90;67.60;;;;;;5013161;28;20014;-75
2021/08/02 12:31:13;;;;;;;1.88;0.98;;;21.90;67.10;;;;;;5013039;28;20492;-75
2021/08/02 12:33:39;;;;;;;1.52;0.70;;;22.10;66.40;;;;;;5011568;28;20547;-75
2021/08/02 12:36:05;;;;;;;3.22;0.90;;;22.10;65.60;;;;;;5011108;28;20097;-75
2021/08/02 12:38:30;;;;;;;2.50;0.95;;;22.10;65.10;;;;;;5010421;28;20026;-74
2021/08/02 12:41:00;;;;;;;1.77;0.50;;;22.20;66.00;;;;;;5012648;28;20030;-74
2021/08/02 12:43:26;;;;;;;2.35;0.63;;;22.20;65.50;;;;;;5000158;28;20030;-74
2021/08/02 12:45:52;;;;;;;1.90;0.75;;;22.20;65.70;;;;;;4997881;28;20034;-75
2021/08/02 12:48:17;;;;;;;1.48;0.75;;;22.20;65.70;;;;;;5013560;28;20535;-74
2021/08/02 12:50:43;;;;;;;0.95;0.75;;;22.40;65.70;;;;;;5012272;28;20026;-74
2021/08/02 12:53:08;;;;;;;0.75;0.60;;;22.60;64.80;;;;;;5012789;28;20049;-73